createdAt,value
2018-06-16T00:00:19.052Z,9.10
2018-06-16T00:02:47.278Z,9.13
2018-06-16T00:05:15.475Z,8.07
2018-06-16T00:07:43.672Z,9.30
2018-06-16T00:10:11.911Z,9.10
2018-06-16T00:12:40.099Z,8.70
2018-06-16T00:15:08.282Z,8.50
2018-06-16T00:17:36.472Z,9.00
2018-06-16T00:20:04.769Z,9.63
2018-06-16T00:22:32.947Z,7.80
2018-06-16T00:25:01.312Z,8.60
2018-06-16T00:27:30.213Z,8.50
2018-06-16T00:29:58.410Z,7.53
2018-06-16T00:32:26.710Z,8.50
2018-06-16T00:34:54.876Z,8.80
2018-06-16T00:37:23.827Z,9.00
2018-06-16T00:39:52.220Z,8.33
2018-06-16T00:42:20.446Z,8.63
2018-06-16T00:44:48.707Z,8.50
2018-06-16T00:47:16.905Z,8.37
2018-06-16T00:49:45.086Z,9.47
2018-06-16T00:52:13.393Z,8.30
2018-06-16T00:54:41.590Z,8.30
2018-06-16T00:57:21.029Z,8.53
2018-06-16T00:59:49.227Z,8.73
2018-06-16T01:02:17.519Z,8.40
2018-06-16T01:04:45.879Z,8.67
2018-06-16T01:07:14.072Z,7.80
2018-06-16T01:09:42.260Z,7.70
2018-06-16T01:12:10.459Z,7.90
2018-06-16T01:14:38.626Z,8.43
2018-06-16T01:17:06.829Z,9.37
2018-06-16T01:19:35.035Z,8.67
2018-06-16T01:22:03.234Z,8.87
2018-06-16T01:24:31.418Z,9.83
2018-06-16T01:26:59.615Z,7.80
2018-06-16T01:29:27.802Z,8.60
2018-06-16T01:31:56.003Z,7.43
2018-06-16T01:34:24.190Z,8.77
2018-06-16T01:36:52.382Z,9.27
2018-06-16T01:39:20.329Z,8.10
2018-06-16T01:41:48.522Z,8.27
2018-06-16T01:44:16.462Z,6.87
2018-06-16T01:46:44.748Z,7.33
2018-06-16T01:49:12.911Z,6.70
2018-06-16T01:51:41.103Z,7.53
2018-06-16T01:54:09.297Z,8.30
2018-06-16T01:56:37.251Z,8.50
2018-06-16T01:59:05.464Z,8.10
2018-06-16T02:01:33.668Z,7.90
2018-06-16T02:04:01.856Z,8.30
2018-06-16T02:06:30.059Z,7.40
2018-06-16T02:08:58.245Z,8.07
2018-06-16T02:11:26.428Z,8.23
2018-06-16T02:13:54.673Z,8.13
2018-06-16T02:16:22.874Z,7.97
2018-06-16T02:18:51.681Z,8.00
2018-06-16T02:21:19.891Z,8.27
2018-06-16T02:23:48.119Z,8.20
2018-06-16T02:26:16.319Z,8.03
2018-06-16T02:28:44.512Z,8.70
2018-06-16T02:31:12.697Z,10.10
2018-06-16T02:33:40.932Z,9.13
2018-06-16T02:36:09.127Z,9.70
2018-06-16T02:38:37.311Z,9.93
2018-06-16T02:41:05.815Z,9.60
2018-06-16T02:43:33.748Z,8.23
2018-06-16T02:46:01.951Z,8.20
2018-06-16T02:48:30.330Z,8.97
2018-06-16T02:50:58.298Z,8.23
2018-06-16T02:53:26.283Z,9.20
2018-06-16T02:55:54.480Z,9.93
2018-06-16T02:58:22.673Z,9.40
2018-06-16T03:00:50.851Z,8.60
2018-06-16T03:03:19.085Z,7.90
2018-06-16T03:05:47.233Z,8.10
2018-06-16T03:08:15.420Z,8.93
2018-06-16T03:10:43.605Z,7.50
2018-06-16T03:13:11.836Z,8.50
2018-06-16T03:15:40.046Z,7.10
2018-06-16T03:18:08.256Z,8.30
2018-06-16T03:20:36.499Z,8.30
2018-06-16T03:23:04.756Z,9.13
2018-06-16T03:25:32.951Z,8.90
2018-06-16T03:28:01.194Z,8.10
2018-06-16T03:30:29.393Z,8.90
2018-06-16T03:32:57.676Z,8.60
2018-06-16T03:35:25.870Z,8.90
2018-06-16T03:37:54.211Z,8.77
2018-06-16T03:40:22.169Z,7.53
2018-06-16T03:42:50.367Z,8.33
2018-06-16T03:45:18.598Z,8.23
2018-06-16T03:47:46.813Z,7.00
2018-06-16T03:50:15.017Z,6.70
2018-06-16T03:52:43.207Z,6.93
2018-06-16T03:55:11.435Z,7.90
2018-06-16T03:57:39.638Z,7.50
2018-06-16T04:00:07.856Z,7.07
2018-06-16T04:02:36.060Z,6.60
2018-06-16T04:05:04.001Z,7.63
2018-06-16T04:07:32.203Z,7.50
2018-06-16T04:10:00.156Z,7.83
2018-06-16T04:12:28.348Z,7.77
2018-06-16T04:14:56.315Z,7.93
2018-06-16T04:17:24.272Z,8.17
2018-06-16T04:19:53.551Z,9.93
2018-06-16T04:22:22.264Z,7.70
2018-06-16T04:24:50.464Z,8.90
2018-06-16T04:27:18.652Z,8.07
2018-06-16T04:29:46.853Z,9.97
2018-06-16T04:32:15.239Z,9.50
2018-06-16T04:34:43.463Z,9.60
2018-06-16T04:37:11.661Z,10.23
2018-06-16T04:39:39.876Z,9.57
2018-06-16T04:42:08.044Z,8.80
2018-06-16T04:44:36.245Z,9.93
2018-06-16T04:47:04.184Z,8.40
2018-06-16T04:49:32.380Z,8.77
2018-06-16T04:52:00.557Z,9.13
2018-06-16T04:54:28.501Z,8.10
2018-06-16T04:56:56.743Z,8.73
2018-06-16T04:59:24.941Z,8.67
2018-06-16T05:01:53.142Z,9.47
2018-06-16T05:04:21.333Z,8.70
2018-06-16T05:06:49.528Z,8.83
2018-06-16T05:09:17.711Z,9.27
2018-06-16T05:11:45.898Z,8.03
2018-06-16T05:14:14.091Z,7.90
2018-06-16T05:16:42.272Z,7.20
2018-06-16T05:19:10.463Z,6.60
2018-06-16T05:21:38.658Z,6.70
2018-06-16T05:24:06.855Z,6.50
2018-06-16T05:26:35.040Z,7.33
2018-06-16T05:29:03.226Z,6.40
2018-06-16T05:31:31.420Z,6.50
2018-06-16T05:33:59.596Z,6.60
2018-06-16T05:36:27.527Z,6.00
2018-06-16T05:38:55.735Z,5.67
2018-06-16T05:41:23.990Z,6.30
2018-06-16T05:43:52.177Z,6.13
2018-06-16T05:46:20.382Z,5.60
2018-06-16T05:48:48.572Z,4.50
2018-06-16T05:51:16.942Z,5.10
2018-06-16T05:53:45.157Z,5.33
2018-06-16T05:56:13.350Z,4.30
2018-06-16T05:58:41.534Z,5.70
2018-06-16T06:01:10.354Z,4.90
2018-06-16T06:03:38.555Z,4.77
2018-06-16T06:06:06.758Z,4.90
2018-06-16T06:08:34.976Z,4.73
2018-06-16T06:11:03.166Z,5.13
2018-06-16T06:13:31.397Z,4.20
2018-06-16T06:15:59.576Z,4.37
2018-06-16T06:18:27.754Z,4.60
2018-06-16T06:20:55.703Z,4.27
2018-06-16T06:23:23.890Z,4.37
2018-06-16T06:25:51.855Z,4.70
2018-06-16T06:28:20.044Z,4.70
2018-06-16T06:30:48.218Z,4.87
2018-06-16T06:33:16.153Z,5.20
2018-06-16T06:35:44.351Z,4.70
2018-06-16T06:38:12.287Z,5.03
2018-06-16T06:40:40.492Z,5.10
2018-06-16T06:43:08.421Z,4.90
2018-06-16T06:45:36.705Z,4.97
2018-06-16T06:48:05.115Z,4.60
2018-06-16T06:50:33.731Z,4.57
2018-06-16T06:53:01.911Z,4.63
2018-06-16T06:55:30.103Z,4.80
2018-06-16T06:57:58.366Z,5.50
2018-06-16T07:00:26.490Z,4.70
2018-06-16T07:02:54.673Z,4.33
2018-06-16T07:05:22.622Z,4.50
2018-06-16T07:07:50.951Z,4.53
2018-06-16T07:10:19.228Z,4.83
2018-06-16T07:12:47.506Z,4.80
2018-06-16T07:15:15.829Z,4.97
2018-06-16T07:17:44.194Z,4.43
2018-06-16T07:20:12.500Z,4.20
2018-06-16T07:22:40.831Z,4.37
2018-06-16T07:25:09.168Z,4.33
2018-06-16T07:27:37.549Z,4.17
2018-06-16T07:30:05.544Z,4.23
2018-06-16T07:32:33.887Z,4.20
2018-06-16T07:35:01.898Z,4.63
2018-06-16T07:37:30.094Z,3.57
2018-06-16T07:39:58.303Z,3.50
2018-06-16T07:42:26.493Z,4.33
2018-06-16T07:44:54.708Z,3.60
2018-06-16T07:47:22.922Z,3.60
2018-06-16T07:49:50.886Z,3.93
2018-06-16T07:52:19.325Z,3.70
2018-06-16T07:54:47.532Z,4.13
2018-06-16T07:57:15.732Z,3.40
2018-06-16T07:59:43.936Z,3.30
2018-06-16T08:02:12.135Z,3.00
2018-06-16T08:04:40.350Z,4.43
2018-06-16T08:07:08.571Z,3.43
2018-06-16T08:09:36.751Z,3.43
2018-06-16T08:12:05.128Z,3.27
2018-06-16T08:14:33.331Z,3.20
2018-06-16T08:17:01.566Z,3.60
2018-06-16T08:19:29.776Z,3.27
2018-06-16T08:21:57.971Z,3.50
2018-06-16T08:24:26.292Z,3.23
2018-06-16T08:26:54.929Z,3.20
2018-06-16T08:29:23.160Z,3.63
2018-06-16T08:31:51.364Z,2.60
2018-06-16T08:34:19.538Z,3.07
2018-06-16T08:36:47.754Z,2.30
2018-06-16T08:39:15.960Z,2.70
2018-06-16T08:41:44.140Z,3.20
2018-06-16T08:44:12.324Z,2.40
2018-06-16T08:46:40.523Z,2.60
2018-06-16T08:49:08.504Z,2.57
2018-06-16T08:51:36.771Z,3.23
2018-06-16T08:54:05.346Z,2.60
2018-06-16T08:56:33.290Z,2.70
2018-06-16T08:59:01.491Z,2.50
2018-06-16T09:01:29.696Z,2.40
2018-06-16T09:03:57.902Z,2.23
2018-06-16T09:06:25.842Z,2.50
2018-06-16T09:08:54.025Z,2.10
2018-06-16T09:11:22.643Z,2.53
2018-06-16T09:13:50.873Z,2.80
2018-06-16T09:16:19.098Z,2.80
2018-06-16T09:18:47.356Z,2.30
2018-06-16T09:21:15.544Z,2.53
2018-06-16T09:23:43.737Z,2.80
2018-06-16T09:26:11.964Z,2.40
2018-06-16T09:28:40.149Z,2.57
2018-06-16T09:31:08.341Z,2.10
2018-06-16T09:33:36.543Z,1.87
2018-06-16T09:36:04.499Z,2.40
2018-06-16T09:38:32.445Z,2.40
2018-06-16T09:41:00.625Z,2.47
2018-06-16T09:43:28.836Z,2.20
2018-06-16T09:45:57.021Z,1.90
2018-06-16T09:48:25.203Z,1.80
2018-06-16T09:50:53.409Z,2.07
2018-06-16T09:53:21.590Z,2.00
2018-06-16T09:55:49.786Z,1.80
2018-06-16T09:58:17.993Z,2.10
2018-06-16T10:00:46.195Z,2.13
2018-06-16T10:03:14.429Z,2.00
2018-06-16T10:05:42.612Z,2.80
2018-06-16T10:08:10.882Z,1.83
2018-06-16T10:10:39.086Z,2.07
2018-06-16T10:13:07.311Z,1.90
2018-06-16T10:15:35.566Z,2.10
2018-06-16T10:18:03.759Z,2.20
2018-06-16T10:20:31.699Z,1.80
2018-06-16T10:22:59.887Z,2.00
2018-06-16T10:25:28.091Z,2.73
2018-06-16T10:27:56.574Z,4.33
2018-06-16T10:30:24.806Z,1.90
2018-06-16T10:32:53.017Z,1.67
2018-06-16T10:35:21.228Z,1.90
2018-06-16T10:37:49.421Z,1.80
2018-06-16T10:40:17.625Z,2.10
2018-06-16T10:42:45.882Z,1.70
2018-06-16T10:45:14.058Z,1.80
2018-06-16T10:47:42.257Z,2.00
2018-06-16T10:50:10.445Z,1.90
2018-06-16T10:52:38.630Z,1.77
2018-06-16T10:55:06.857Z,2.03
2018-06-16T10:57:35.091Z,1.93
2018-06-16T11:00:03.323Z,2.10
2018-06-16T11:02:31.526Z,1.60
2018-06-16T11:04:59.764Z,2.20
2018-06-16T11:07:28.007Z,2.17
2018-06-16T11:09:56.207Z,1.70
2018-06-16T11:12:24.432Z,1.80
2018-06-16T11:14:52.627Z,1.90
2018-06-16T11:17:20.840Z,2.00
2018-06-16T11:19:49.022Z,2.40
2018-06-16T11:22:16.967Z,1.97
2018-06-16T11:24:45.162Z,1.80
2018-06-16T11:27:13.342Z,2.10
2018-06-16T11:29:41.583Z,1.83
2018-06-16T11:32:09.787Z,2.20
2018-06-16T11:34:37.999Z,2.23
2018-06-16T11:37:06.199Z,2.10
2018-06-16T11:39:34.399Z,1.93
2018-06-16T11:42:02.653Z,2.30
2018-06-16T11:44:30.996Z,2.47
2018-06-16T11:46:59.348Z,1.67
2018-06-16T11:49:27.802Z,2.27
2018-06-16T11:51:55.994Z,2.23
2018-06-16T11:54:24.209Z,1.77
2018-06-16T11:56:53.012Z,2.47
2018-06-16T11:59:21.239Z,2.20
2018-06-16T12:01:49.447Z,1.93
2018-06-16T12:04:17.629Z,2.20
2018-06-16T12:06:45.817Z,1.93
2018-06-16T12:09:14.027Z,2.40
2018-06-16T12:11:41.970Z,2.20
2018-06-16T12:14:10.480Z,2.10
2018-06-16T12:16:39.046Z,2.30
2018-06-16T12:19:07.622Z,2.47
2018-06-16T12:21:35.848Z,2.30
2018-06-16T12:24:04.489Z,2.00
2018-06-16T12:26:32.723Z,2.43
2018-06-16T12:29:01.022Z,2.33
2018-06-16T12:31:29.210Z,2.20
2018-06-16T12:33:57.426Z,2.20
2018-06-16T12:36:25.619Z,2.03
2018-06-16T12:38:53.807Z,2.20
2018-06-16T12:41:22.015Z,2.33
2018-06-16T12:43:50.407Z,2.30
2018-06-16T12:46:18.590Z,2.30
2018-06-16T12:48:46.815Z,2.00
2018-06-16T12:51:15.002Z,1.83
2018-06-16T12:53:43.194Z,2.13
2018-06-16T12:56:11.425Z,2.10
2018-06-16T12:58:39.659Z,1.93
2018-06-16T13:01:07.908Z,1.83
2018-06-16T13:03:35.852Z,2.00
2018-06-16T13:06:04.062Z,2.80
2018-06-16T13:08:32.266Z,2.27
2018-06-16T13:11:00.492Z,2.50
2018-06-16T13:13:28.751Z,2.30
2018-06-16T13:15:56.959Z,2.43
2018-06-16T13:18:24.928Z,2.33
2018-06-16T13:20:52.862Z,2.10
2018-06-16T13:23:21.066Z,1.93
2018-06-16T13:25:49.286Z,2.43
2018-06-16T13:28:17.469Z,2.53
2018-06-16T13:30:45.691Z,2.10
2018-06-16T13:33:13.990Z,2.30
2018-06-16T13:35:42.170Z,2.17
2018-06-16T13:38:10.366Z,2.00
2018-06-16T13:40:38.553Z,2.40
2018-06-16T13:43:06.788Z,2.20
2018-06-16T13:45:34.950Z,2.00
2018-06-16T13:48:03.140Z,1.90
2018-06-16T13:50:31.312Z,2.00
2018-06-16T13:52:59.959Z,1.90
2018-06-16T13:55:28.252Z,1.80
2018-06-16T13:57:56.218Z,1.80
2018-06-16T14:00:24.547Z,1.70
2018-06-16T14:02:52.739Z,1.67
2018-06-16T14:05:20.924Z,1.57
2018-06-16T14:07:49.157Z,1.80
2018-06-16T14:10:17.324Z,1.73
2018-06-16T14:12:45.540Z,2.00
2018-06-16T14:15:14.051Z,1.97
2018-06-16T14:17:42.253Z,1.93
2018-06-16T14:20:10.799Z,2.43
2018-06-16T14:22:39.205Z,2.40
2018-06-16T14:25:07.727Z,1.90
2018-06-16T14:27:36.330Z,2.20
2018-06-16T14:30:04.352Z,2.03
2018-06-16T14:32:32.544Z,1.97
2018-06-16T14:35:00.746Z,2.47
2018-06-16T14:37:28.936Z,2.30
2018-06-16T14:39:56.919Z,1.90
2018-06-16T14:42:25.124Z,1.93
2018-06-16T14:44:53.348Z,1.93
2018-06-16T14:47:21.556Z,2.20
2018-06-16T14:49:49.800Z,2.00
2018-06-16T14:52:18.010Z,2.10
2018-06-16T14:54:46.185Z,2.30
2018-06-16T14:57:14.371Z,2.27
2018-06-16T14:59:42.612Z,2.10
2018-06-16T15:02:10.760Z,2.30
2018-06-16T15:04:39.011Z,2.27
2018-06-16T15:07:07.128Z,2.53
2018-06-16T15:09:35.145Z,2.27
2018-06-16T15:12:03.267Z,2.33
2018-06-16T15:14:31.204Z,2.30
2018-06-16T15:16:59.447Z,2.17
2018-06-16T15:19:27.712Z,2.33
2018-06-16T15:21:55.854Z,2.00
2018-06-16T15:24:24.049Z,2.30
2018-06-16T15:26:52.258Z,2.23
2018-06-16T15:29:20.465Z,2.10
2018-06-16T15:31:48.689Z,2.30
2018-06-16T15:34:16.867Z,1.90
2018-06-16T15:36:45.187Z,2.50
2018-06-16T15:39:13.411Z,2.40
2018-06-16T15:41:41.606Z,2.30
2018-06-16T15:44:09.822Z,2.10
2018-06-16T15:46:37.792Z,2.63
2018-06-16T15:49:06.014Z,2.97
2018-06-16T15:51:34.249Z,2.20
2018-06-16T15:54:02.464Z,2.23
2018-06-16T15:56:30.641Z,2.30
2018-06-16T15:58:58.847Z,2.67
2018-06-16T16:01:27.041Z,2.40
2018-06-16T16:03:55.250Z,3.00
2018-06-16T16:06:23.447Z,2.50
2018-06-16T16:08:51.641Z,2.50
2018-06-16T16:11:19.835Z,2.83
2018-06-16T16:13:47.773Z,2.30
2018-06-16T16:16:15.963Z,2.20
2018-06-16T16:18:44.177Z,2.20
2018-06-16T16:21:13.011Z,2.70
2018-06-16T16:23:41.539Z,2.57
2018-06-16T16:26:09.719Z,2.90
2018-06-16T16:28:37.926Z,2.13
2018-06-16T16:31:06.236Z,1.93
2018-06-16T16:33:34.432Z,2.33
2018-06-16T16:36:02.379Z,2.73
2018-06-16T16:38:30.592Z,2.33
2018-06-16T16:40:58.782Z,2.03
2018-06-16T16:43:26.987Z,2.23
2018-06-16T16:45:55.182Z,2.27
2018-06-16T16:48:23.217Z,2.67
2018-06-16T16:50:51.409Z,3.20
2018-06-16T16:53:19.610Z,2.30
2018-06-16T16:55:47.818Z,2.30
2018-06-16T16:58:16.012Z,2.63
2018-06-16T17:00:44.203Z,2.30
2018-06-16T17:03:12.394Z,2.73
2018-06-16T17:05:40.585Z,2.50
2018-06-16T17:08:08.815Z,2.30
2018-06-16T17:10:37.023Z,2.47
2018-06-16T17:13:05.227Z,3.70
2018-06-16T17:15:33.439Z,2.43
2018-06-16T17:18:01.657Z,3.07
2018-06-16T17:20:30.034Z,2.90
2018-06-16T17:22:58.372Z,2.53
2018-06-16T17:25:26.577Z,2.87
2018-06-16T17:27:54.764Z,2.60
2018-06-16T17:30:22.708Z,2.50
2018-06-16T17:32:50.880Z,2.80
2018-06-16T17:35:19.071Z,2.63
2018-06-16T17:37:47.257Z,3.20
2018-06-16T17:40:15.454Z,2.90
2018-06-16T17:42:43.671Z,2.90
2018-06-16T17:45:11.871Z,2.60
2018-06-16T17:47:39.819Z,3.20
2018-06-16T17:50:08.004Z,2.90
2018-06-16T17:52:35.991Z,3.33
2018-06-16T17:55:03.935Z,3.17
2018-06-16T17:57:31.907Z,3.07
2018-06-16T17:59:59.842Z,2.90
2018-06-16T18:02:28.045Z,3.40
2018-06-16T18:04:56.028Z,2.30
2018-06-16T18:07:24.174Z,2.70
2018-06-16T18:09:52.401Z,3.03
2018-06-16T18:12:20.640Z,2.97
2018-06-16T18:14:48.588Z,3.40
2018-06-16T18:17:16.784Z,3.40
2018-06-16T18:19:44.960Z,2.80
2018-06-16T18:22:13.146Z,3.07
2018-06-16T18:24:41.338Z,2.90
2018-06-16T18:27:09.523Z,3.17
2018-06-16T18:29:37.723Z,3.20
2018-06-16T18:32:06.031Z,2.70
2018-06-16T18:34:34.289Z,3.60
2018-06-16T18:37:02.476Z,3.00
2018-06-16T18:39:30.663Z,3.67
2018-06-16T18:41:58.604Z,3.70
2018-06-16T18:44:26.794Z,4.33
2018-06-16T18:46:54.978Z,3.83
2018-06-16T18:49:23.172Z,3.63
2018-06-16T18:51:51.391Z,3.60
2018-06-16T18:54:19.551Z,3.83
2018-06-16T18:56:47.763Z,4.00
2018-06-16T18:59:15.975Z,3.97
2018-06-16T19:01:44.159Z,4.00
2018-06-16T19:04:12.366Z,5.33
2018-06-16T19:06:40.521Z,4.63
2018-06-16T19:09:09.358Z,4.50
2018-06-16T19:11:37.693Z,4.80
2018-06-16T19:14:05.898Z,5.00
2018-06-16T19:16:34.139Z,4.20
2018-06-16T19:19:02.323Z,4.23
2018-06-16T19:21:30.725Z,5.57
2018-06-16T19:23:58.924Z,4.60
2018-06-16T19:26:27.120Z,4.10
2018-06-16T19:28:55.301Z,5.10
2018-06-16T19:31:23.501Z,5.13
2018-06-16T19:33:51.697Z,4.37
2018-06-16T19:36:19.886Z,5.37
2018-06-16T19:38:48.084Z,5.93
2018-06-16T19:41:16.275Z,6.03
2018-06-16T19:43:44.551Z,6.00
2018-06-16T19:46:12.962Z,6.40
2018-06-16T19:48:41.153Z,6.23
2018-06-16T19:51:09.107Z,5.63
2018-06-16T19:53:37.300Z,6.23
2018-06-16T19:56:05.542Z,6.70
2018-06-16T19:58:34.397Z,6.40
2018-06-16T20:01:02.601Z,5.07
2018-06-16T20:03:30.827Z,6.10
2018-06-16T20:05:59.180Z,5.97
2018-06-16T20:08:27.376Z,5.90
2018-06-16T20:10:55.565Z,7.50
2018-06-16T20:13:23.758Z,6.43
2018-06-16T20:15:52.072Z,6.30
2018-06-16T20:18:20.275Z,5.70
2018-06-16T20:20:48.482Z,5.53
2018-06-16T20:23:16.676Z,6.07
2018-06-16T20:25:44.897Z,6.80
2018-06-16T20:28:13.083Z,6.23
2018-06-16T20:30:41.274Z,6.00
2018-06-16T20:33:09.461Z,6.07
2018-06-16T20:35:37.655Z,6.20
2018-06-16T20:38:05.851Z,7.00
2018-06-16T20:40:34.066Z,6.57
2018-06-16T20:43:02.232Z,5.77
2018-06-16T20:45:30.419Z,6.70
2018-06-16T20:47:58.615Z,7.13
2018-06-16T20:50:26.865Z,6.50
2018-06-16T20:52:55.079Z,7.50
2018-06-16T20:55:23.292Z,6.77
2018-06-16T20:57:51.482Z,6.77
2018-06-16T21:00:19.666Z,6.70
2018-06-16T21:02:47.872Z,6.40
2018-06-16T21:05:16.057Z,7.30
2018-06-16T21:07:43.997Z,7.03
2018-06-16T21:10:12.212Z,7.30
2018-06-16T21:12:40.717Z,7.50
2018-06-16T21:15:08.907Z,7.13
2018-06-16T21:17:37.104Z,6.93
2018-06-16T21:20:05.289Z,7.00
2018-06-16T21:22:33.499Z,7.47
2018-06-16T21:25:01.676Z,7.20
2018-06-16T21:27:29.894Z,8.90
2018-06-16T21:29:58.087Z,9.50
2018-06-16T21:32:26.312Z,10.53
2018-06-16T21:34:54.556Z,9.00
2018-06-16T21:37:22.724Z,9.73
2018-06-16T21:39:50.913Z,8.37
2018-06-16T21:42:19.212Z,8.80
2018-06-16T21:44:47.430Z,8.63
2018-06-16T21:47:15.625Z,7.77
2018-06-16T21:49:43.574Z,8.10
2018-06-16T21:52:11.782Z,7.50
2018-06-16T21:54:40.000Z,7.70
2018-06-16T21:57:08.205Z,6.77
2018-06-16T21:59:36.138Z,7.40
2018-06-16T22:02:05.373Z,7.70
2018-06-16T22:04:33.661Z,7.53
2018-06-16T22:07:01.791Z,8.30
2018-06-16T22:09:30.011Z,8.17
2018-06-16T22:11:57.968Z,7.60
2018-06-16T22:14:25.924Z,7.80
2018-06-16T22:16:54.181Z,8.13
2018-06-16T22:19:24.645Z,6.83
2018-06-16T22:21:52.883Z,7.57
2018-06-16T22:24:21.107Z,7.90
2018-06-16T22:26:49.305Z,7.40
2018-06-16T22:29:17.512Z,6.83
2018-06-16T22:31:45.731Z,7.63
2018-06-16T22:34:13.937Z,8.33
2018-06-16T22:36:42.158Z,7.80
2018-06-16T22:39:11.817Z,8.00
2018-06-16T22:41:39.998Z,8.23
2018-06-16T22:44:08.855Z,9.67
2018-06-16T22:46:37.063Z,8.60
2018-06-16T22:49:05.340Z,9.13
2018-06-16T22:51:33.522Z,8.50
2018-06-16T22:54:01.729Z,7.33
2018-06-16T22:56:29.698Z,7.50
2018-06-16T22:58:58.239Z,8.27
2018-06-16T23:01:26.445Z,8.77
2018-06-16T23:03:54.626Z,8.70
2018-06-16T23:06:22.834Z,8.47
2018-06-16T23:08:51.037Z,9.03
2018-06-16T23:11:19.252Z,8.60
2018-06-16T23:13:47.205Z,8.27
2018-06-16T23:16:15.408Z,8.50
2018-06-16T23:18:43.606Z,8.27
2018-06-16T23:21:11.798Z,8.40
2018-06-16T23:23:40.011Z,9.03
2018-06-16T23:26:08.905Z,8.80
2018-06-16T23:28:37.127Z,8.87
2018-06-16T23:31:05.377Z,9.13
2018-06-16T23:33:33.575Z,8.97
2018-06-16T23:36:01.769Z,8.20
2018-06-16T23:38:29.988Z,9.10
2018-06-16T23:40:58.471Z,9.23
2018-06-16T23:43:26.664Z,9.30
2018-06-16T23:45:54.884Z,9.03
2018-06-16T23:48:23.111Z,8.40
2018-06-16T23:50:51.296Z,8.77
2018-06-16T23:53:19.518Z,8.87
2018-06-16T23:55:47.907Z,8.80
2018-06-16T23:58:16.103Z,8.50
